^^
Datos históricos de la estación: Murcia-Puente Tocinos
Diario Informe para Junio 18, 2019 Unidades:  Inglés    Métrico   Ambas
Diario Semanal Mensual Anual Configurable
  Máximo: Mínimo: Media:
Temperatura: 87.1 °F 63.9 °F 74.8 °F
Punto de rocio: 63.3 °F 51.4 °F 57 °F
Humedad: 84% 32% 57%
Velocidad viento: 12.3mph 0mph 5.6mph
Racha viento: 20.8mph - -
Viento- - ESE
Presión: 30 in 29.8 in -
Precipitación: 0 in    
Historical Graphs
 
 
Tabla de datos para Junio 18, 2019
Hora Temperatura Punto de rocio Presión Viento Velocidad viento Racha viento Humedad Intensidad lluvia(por hora) Nubes
00:04 68.7 °F 60.4 °F 30 in NNE 6.4 mph 9.2 mph 75% 0 in CLR
00:09 68.7 °F 60.4 °F 30 in NE 6.2 mph 6.9 mph 75% 0 in CLR
00:14 68.5 °F 60.6 °F 30 in NNE 6.2 mph 6.9 mph 76% 0 in CLR
00:19 68.5 °F 60.6 °F 30 in NE 5.4 mph 9.2 mph 76% 0 in CLR
00:24 68.4 °F 60.4 °F 30 in ENE 5.4 mph 8.1 mph 76% 0 in CLR
00:29 68.4 °F 60.4 °F 30 in NE 6.4 mph 6.9 mph 76% 0 in CLR
00:34 68.2 °F 60.3 °F 30 in NNE 6.4 mph 8.1 mph 76% 0 in CLR
00:39 68.2 °F 60.6 °F 30 in ENE 5.2 mph 9.2 mph 77% 0 in CLR
00:44 68 °F 61.2 °F 30 in NE 5.2 mph 5.9 mph 79% 0 in CLR
00:49 67.8 °F 61.2 °F 30 in NNE 5.2 mph 8.1 mph 79% 0 in CLR
00:54 67.8 °F 61.3 °F 30 in East 5.2 mph 6.2 mph 80% 0 in CLR
00:59 67.5 °F 61.2 °F 30 in NE 4.7 mph 8.5 mph 80% 0 in CLR
01:04 67.5 °F 61.3 °F 30 in NE 4.7 mph 8.1 mph 81% 0 in CLR
01:09 67.3 °F 61.2 °F 30 in ENE 5.4 mph 5.2 mph 81% 0 in CLR
01:14 67.3 °F 61.5 °F 30 in NE 5.4 mph 6.9 mph 82% 0 in CLR
01:19 66.9 °F 61.2 °F 30 in NE 4.7 mph 8.1 mph 82% 0 in CLR
01:24 66.9 °F 61.2 °F 30 in NE 4.7 mph 5.8 mph 82% 0 in CLR
01:29 66.9 °F 61.5 °F 30 in NE 5.2 mph 5.8 mph 83% 0 in CLR
01:34 66.7 °F 61.3 °F 30 in ENE 5.2 mph 5.8 mph 83% 0 in CLR
01:39 66.7 °F 61.2 °F 30 in NNE 3.6 mph 2.9 mph 82% 0 in CLR
01:44 66.7 °F 61.2 °F 30 in NE 3.6 mph 5.8 mph 82% 0 in CLR
01:49 66.7 °F 61.3 °F 30 in NE 2.4 mph 4.7 mph 83% 0 in CLR
01:54 66.6 °F 61 °F 30 in NE 2.4 mph   82% 0 in CLR
01:59 66.6 °F 61.2 °F 30 in NE 2 mph 3.6 mph 83% 0 in CLR
02:04 66.6 °F 61.2 °F 30 in NE 2 mph 4.7 mph 83% 0 in CLR
02:09 66.4 °F 61.2 °F 30 in NE 3.1 mph 5.2 mph 83% 0 in CLR
02:14 66.2 °F 60.4 °F 30 in NE 3.1 mph 4.6 mph 82% 0 in CLR
02:19 66 °F 60.1 °F 30 in NE 2.4 mph 3.5 mph 81% 0 in CLR
02:24 66 °F 59.7 °F 30 in NE 2.4 mph 4.6 mph 80% 0 in CLR
02:29 66 °F 60.4 °F 30 in NNE 2.4 mph 2.3 mph 82% 0 in CLR
02:34 66 °F 60.6 °F 30 in NE 2.4 mph 4.6 mph 83% 0 in CLR
02:39 66.2 °F 61.2 °F 30 in NE 2 mph 2.3 mph 84% 0 in CLR
02:44 66.4 °F 61.3 °F 30 in NE 2 mph 2.4 mph 84% 0 in CLR
02:49 66.4 °F 61.3 °F 30 in Calm     84% 0 in CLR
02:54 66.4 °F 61.3 °F 30 in Calm   2.3 mph 84% 0 in CLR
02:59 66.4 °F 60.6 °F 30 in Calm   1.2 mph 82% 0 in CLR
03:04 66 °F 59.7 °F 29.9 in Calm     80% 0 in CLR
03:09 66 °F 60.1 °F 29.9 in Calm     81% 0 in CLR
03:14 66.2 °F 60.4 °F 29.9 in Calm     82% 0 in CLR
03:19 66.4 °F 60.6 °F 29.9 in Calm     82% 0 in CLR
03:24 66.4 °F 60.6 °F 29.9 in Calm     82% 0 in CLR
03:29 66.6 °F 61 °F 29.9 in Calm     82% 0 in CLR
03:34 66.6 °F 61 °F 29.9 in Calm     82% 0 in CLR
03:39 66.6 °F 61 °F 29.9 in Calm     82% 0 in CLR
03:44 66.6 °F 61 °F 29.9 in Calm     82% 0 in CLR
03:49 66.4 °F 60.6 °F 29.9 in Calm     82% 0 in CLR
03:54 66.4 °F 60.6 °F 29.9 in Calm     82% 0 in CLR
03:59 66.2 °F 60.4 °F 29.9 in Calm     82% 0 in CLR
04:04 65.8 °F 58.8 °F 29.9 in Calm   3.5 mph 78% 0 in CLR
04:09 65.5 °F 58.1 °F 29.9 in ENE 1.8 mph 3.5 mph 77% 0 in CLR
04:14 65.3 °F 57.6 °F 29.9 in ENE 1.8 mph   76% 0 in CLR
04:19 65.1 °F 57 °F 29.9 in ENE 1.4 mph 1.2 mph 75% 0 in CLR
04:24 65.3 °F 56.8 °F 29.9 in ENE 1.4 mph   74% 0 in CLR
04:29 65.3 °F 56.5 °F 29.9 in Calm     73% 0 in CLR
04:34 65.3 °F 55.2 °F 29.9 in Calm   4.6 mph 70% 0 in CLR
04:39 65.1 °F 55 °F 29.9 in ESE 2.4 mph 4.6 mph 70% 0 in CLR
04:44 65.1 °F 54.3 °F 29.9 in SE 2.4 mph 3.6 mph 68% 0 in CLR
04:49 64.9 °F 54.1 °F 29.9 in SE 2.9 mph 3.5 mph 68% 0 in CLR
04:54 64.9 °F 54.1 °F 29.9 in SE 2.9 mph 4.6 mph 68% 0 in CLR
04:59 65.1 °F 54.3 °F 29.9 in SE 2.9 mph 3.5 mph 68% 0 in CLR
05:04 64.9 °F 54.1 °F 29.9 in SSE 2.9 mph 3.5 mph 68% 0 in CLR
05:09 64.9 °F 54.1 °F 29.9 in SSE 2.4 mph 4.6 mph 68% 0 in CLR
05:14 64.9 °F 54.1 °F 29.9 in SSE 2.4 mph 2.3 mph 68% 0 in CLR
05:19 64.9 °F 54.1 °F 29.9 in SSE 1.8 mph   68% 0 in CLR
05:24 64.9 °F 54.1 °F 29.9 in SSE 1.8 mph   68% 0 in CLR
05:29 65.1 °F 54.3 °F 29.9 in Calm     68% 0 in CLR
05:34 64.9 °F 54.5 °F 29.9 in Calm     69% 0 in CLR
05:39 64.8 °F 54.3 °F 29.9 in Calm     69% 0 in CLR
05:44 64.8 °F 54.7 °F 29.9 in Calm     70% 0 in CLR
05:49 64.6 °F 54.7 °F 29.9 in Calm   2.3 mph 70% 0 in CLR
05:54 64.6 °F 54.7 °F 29.9 in Calm     70% 0 in CLR
05:59 64.4 °F 54.9 °F 29.9 in Calm     71% 0 in CLR
06:04 64.2 °F 54.7 °F 29.9 in Calm     71% 0 in CLR
06:09 64.2 °F 55 °F 29.9 in Calm     72% 0 in CLR
06:14 64.2 °F 55 °F 29.9 in Calm     72% 0 in CLR
06:19 64 °F 54.9 °F 29.9 in Calm     72% 0 in CLR
06:24 64 °F 55.9 °F 29.9 in Calm     75% 0 in CLR
06:29 64 °F 55.9 °F 29.9 in Calm     75% 0 in CLR
06:34 63.9 °F 54.3 °F 29.9 in Calm   3.6 mph 71% 0 in CLR
06:39 63.9 °F 54 °F 29.9 in South 2 mph 4.6 mph 70% 0 in CLR
06:44 64 °F 54.1 °F 29.9 in SSW 2 mph 4.7 mph 70% 0 in CLR
06:49 64 °F 54.1 °F 29.9 in SSW 3.1 mph 4.7 mph 70% 0 in CLR
06:54 64.2 °F 54.1 °F 29.9 in SSE 3.1 mph 4.6 mph 70% 0 in CLR
06:59 64.4 °F 54.3 °F 29.9 in SSE 2.9 mph 4.6 mph 70% 0 in CLR
07:04 64.2 °F 53.8 °F 29.9 in South 2.9 mph 4.6 mph 69% 0 in CLR
07:09 64.4 °F 54 °F 29.9 in South 3.6 mph 5.8 mph 69% 0 in CLR
07:14 64.4 °F 54 °F 29.9 in South 3.6 mph 5.8 mph 69% 0 in CLR
07:19 64.4 °F 54 °F 29.9 in SW 4 mph 4.6 mph 69% 0 in CLR
07:24 64.6 °F 54.7 °F 29.9 in SSW 4 mph 4.6 mph 70% 0 in CLR
07:29 64.6 °F 54.1 °F 29.9 in SW 3.6 mph 5.8 mph 69% 0 in CLR
07:34 64.6 °F 54.1 °F 29.9 in SW 3.6 mph 6.9 mph 69% 0 in CLR
07:39 64.6 °F 54.1 °F 29.9 in SSW 4.3 mph 5.8 mph 69% 0 in CLR
07:44 64.8 °F 54 °F 29.9 in South 4.3 mph 4.6 mph 68% 0 in CLR
07:49 64.9 °F 53.8 °F 29.9 in SW 4.3 mph 5.8 mph 67% 0 in CLR
07:54 65.1 °F 53.4 °F 29.9 in SSE 4.3 mph 5.8 mph 66% 0 in CLR
07:59 65.3 °F 53.6 °F 29.9 in South 4 mph 5.8 mph 66% 0 in CLR
08:04 65.7 °F 53.6 °F 29.9 in South 4 mph 5.8 mph 65% 0 in CLR
08:09 65.8 °F 53.2 °F 29.9 in SSE 4 mph 5.4 mph 64% 0 in CLR
08:14 66.2 °F 53.8 °F 29.9 in SSE 4 mph 5.8 mph 64% 0 in CLR
08:19 66.4 °F 53.1 °F 29.9 in SSW 4.3 mph 5.8 mph 62% 0 in CLR
08:24 66.6 °F 53.1 °F 29.9 in SSW 4.3 mph 5.8 mph 62% 0 in CLR
08:29 66.7 °F 53.2 °F 29.9 in SSE 4 mph 5.8 mph 62% 0 in CLR
08:34 67.1 °F 53.2 °F 29.9 in SSW 4 mph 4.6 mph 61% 0 in CLR
08:39 67.5 °F 53.1 °F 29.9 in SW 2.9 mph 2.3 mph 60% 0 in CLR
08:44 68 °F 52.7 °F 29.9 in WSW 2.9 mph 4 mph 58% 0 in CLR
08:49 68.4 °F 53.1 °F 29.9 in WSW 2 mph 3.5 mph 58% 0 in CLR
08:54 68.5 °F 52.2 °F 29.9 in WNW 2 mph 4.6 mph 56% 0 in CLR
08:59 68.7 °F 52 °F 29.9 in West 2 mph 2.3 mph 55% 0 in CLR
09:04 69.1 °F 52.2 °F 29.9 in NW 2 mph 3.5 mph 55% 0 in CLR
09:09 69.3 °F 51.4 °F 29.9 in NW 2 mph 3.5 mph 53% 0 in CLR
09:14 69.8 °F 52.3 °F 29.9 in NW 2 mph 3.5 mph 54% 0 in CLR
09:19 70.2 °F 51.6 °F 29.9 in NW 1.8 mph 3.5 mph 52% 0 in CLR
09:24 70.5 °F 52 °F 29.9 in WNW 1.8 mph 2.9 mph 52% 0 in CLR
09:29 70.9 °F 52.3 °F 29.9 in West 2 mph 3.5 mph 52% 0 in CLR
09:34 71.1 °F 52 °F 29.9 in West 2 mph 3.5 mph 51% 0 in CLR
09:39 71.2 °F 52.2 °F 29.9 in NW 1.8 mph 1.4 mph 51% 0 in CLR
09:44 72.3 °F 52.5 °F 29.9 in ESE 1.8 mph 3.5 mph 50% 0 in CLR
09:49 73.2 °F 52.3 °F 29.9 in ESE 1.4 mph 2.3 mph 48% 0 in CLR
09:54 73.9 °F 52.3 °F 29.9 in NW 1.4 mph 3.5 mph 47% 0 in CLR
09:59 74.5 °F 52.9 °F 29.9 in NE 1.8 mph 3.5 mph 47% 0 in CLR
10:04 74.8 °F 52.7 °F 29.9 in East 1.8 mph 3.5 mph 46% 0 in CLR
10:09 74.7 °F 52.5 °F 29.9 in NNW 2.4 mph 4.6 mph 46% 0 in CLR
10:14 74.5 °F 52.9 °F 29.9 in NNW 2.4 mph 3.1 mph 47% 0 in CLR
10:19 74.8 °F 52.7 °F 29.9 in NNE 2 mph 3.6 mph 46% 0 in CLR
10:24 75.2 °F 52.3 °F 29.9 in NNE 2 mph 4.7 mph 45% 0 in CLR
10:29 75.4 °F 52.5 °F 29.9 in North 2.9 mph 4.6 mph 45% 0 in CLR
10:34 75.6 °F 52.7 °F 29.9 in North 2.9 mph 6.4 mph 45% 0 in CLR
10:39 75.4 °F 53.2 °F 29.9 in NNE 3.6 mph 7.6 mph 46% 0 in CLR
10:44 75.4 °F 53.8 °F 29.9 in NNW 3.6 mph 5.8 mph 47% 0 in CLR
10:49 75.9 °F 53.6 °F 29.9 in NE 4.3 mph 8.7 mph 46% 0 in CLR
10:54 75.9 °F 53.6 °F 29.9 in NNE 4.3 mph 6.9 mph 46% 0 in CLR
10:59 76.3 °F 54 °F 29.9 in NNW 4.3 mph 9.2 mph 46% 0 in CLR
11:04 76.8 °F 54.5 °F 29.9 in ESE 4.3 mph 6.9 mph 46% 0 in CLR
11:09 77.4 °F 55 °F 29.9 in NE 4.3 mph 4.6 mph 46% 0 in CLR
11:14 77.5 °F 54.5 °F 29.9 in NE 4.3 mph 5.8 mph 45% 0 in CLR
11:19 77.7 °F 55.2 °F 29.9 in NNE 4 mph 6.2 mph 46% 0 in CLR
11:24 78.1 °F 55.6 °F 29.9 in NE 4 mph 8.5 mph 46% 0 in CLR
11:29 78.3 °F 56.5 °F 29.9 in ENE 5.4 mph 8.1 mph 47% 0 in CLR
11:34 78.4 °F 56.5 °F 29.9 in NNE 5.4 mph 9.2 mph 47% 0 in CLR
11:39 79.2 °F 57.2 °F 29.9 in NE 4.3 mph 8.1 mph 47% 0 in CLR
11:44 79.2 °F 57.2 °F 29.9 in ESE 4.3 mph 8.1 mph 47% 0 in CLR
11:49 79.3 °F 57.4 °F 29.9 in ESE 5.4 mph 8.7 mph 47% 0 in CLR
11:54 79.5 °F 57.6 °F 29.9 in NE 5.4 mph 8.1 mph 47% 0 in CLR
11:59 79.9 °F 57.7 °F 29.9 in NNW 5.4 mph 7.4 mph 47% 0 in CLR
12:04 80.4 °F 58.3 °F 29.9 in NE 5.4 mph 10 mph 47% 0 in CLR
12:09 80.6 °F 57.9 °F 29.9 in East 5.2 mph 4.7 mph 46% 0 in CLR
12:14 80.8 °F 58.6 °F 29.9 in North 5.2 mph 9.2 mph 47% 0 in CLR
12:19 81 °F 58.8 °F 29.9 in ENE 4.7 mph 7.4 mph 47% 0 in CLR
12:24 81.1 °F 59 °F 29.9 in NNE 4.7 mph 4.6 mph 47% 0 in CLR
12:29 81.3 °F 55.9 °F 29.9 in ESE 5.4 mph 11.4 mph 42% 0 in CLR
12:34 81.7 °F 55.8 °F 29.9 in SE 5.4 mph 11.5 mph 41% 0 in CLR
12:39 82.2 °F 56.1 °F 29.9 in East 6.9 mph 9.7 mph 41% 0 in CLR
12:44 82.2 °F 55.6 °F 29.9 in SE 6.9 mph 10 mph 40% 0 in CLR
12:49 82.6 °F 55 °F 29.9 in SSE 7.4 mph 7.6 mph 39% 0 in CLR
12:54 82.8 °F 54.7 °F 29.9 in SSE 7.4 mph 12.7 mph 38% 0 in CLR
12:59 82.6 °F 53.8 °F 29.9 in East 7.4 mph 10.4 mph 37% 0 in CLR
13:04 82.6 °F 55 °F 29.9 in SE 7.4 mph 13.8 mph 39% 0 in CLR
13:09 82.4 °F 54.1 °F 29.9 in SSW 7.6 mph 10.4 mph 38% 0 in CLR
13:14 82.4 °F 54.1 °F 29.9 in ENE 7.6 mph 8.1 mph 38% 0 in CLR
13:19 82.6 °F 52.2 °F 29.9 in SE 7.4 mph 16.1 mph 35% 0 in CLR
13:24 82.9 °F 53.2 °F 29.9 in ESE 7.4 mph 7.4 mph 36% 0 in CLR
13:29 82.9 °F 54.7 °F 29.9 in East 8.1 mph 11.5 mph 38% 0 in CLR
13:34 82.9 °F 54 °F 29.9 in SE 8.1 mph 12.7 mph 37% 0 in CLR
13:39 83.5 °F 55.2 °F 29.9 in SE 7.4 mph 13.8 mph 38% 0 in CLR
13:44 83.5 °F 54.5 °F 29.9 in ESE 7.4 mph 16.1 mph 37% 0 in CLR
13:49 83.7 °F 55.4 °F 29.9 in ESE 8.1 mph 10.4 mph 38% 0 in CLR
13:54 83.7 °F 54.7 °F 29.9 in SE 8.1 mph 8.1 mph 37% 0 in CLR
13:59 83.7 °F 56.1 °F 29.9 in ENE 7.4 mph 14.7 mph 39% 0 in CLR
14:04 84 °F 57 °F 29.9 in SE 7.4 mph 13.8 mph 40% 0 in CLR
14:09 84 °F 57 °F 29.9 in SE 8.7 mph 10.4 mph 40% 0 in CLR
14:14 84 °F 59.7 °F 29.9 in East 8.7 mph 20.7 mph 44% 0 in CLR
14:19 84.2 °F 59.4 °F 29.9 in ENE 8.7 mph 12.7 mph 43% 0 in CLR
14:24 83.8 °F 58.3 °F 29.9 in ESE 8.7 mph 18.4 mph 42% 0 in CLR
14:29 83.8 °F 58.3 °F 29.9 in East 9.2 mph 16.1 mph 42% 0 in CLR
14:34 84 °F 58.5 °F 29.9 in SE 9.2 mph 16.1 mph 42% 0 in CLR
14:39 84.6 °F 57.6 °F 29.9 in SE 9.7 mph 13.8 mph 40% 0 in CLR
14:44 84.6 °F 56.8 °F 29.9 in SE 9.7 mph 16.1 mph 39% 0 in CLR
14:49 84.4 °F 58.1 °F 29.9 in East 9.2 mph 12.7 mph 41% 0 in CLR
14:54 84.7 °F 59.2 °F 29.9 in ESE 9.2 mph 11.5 mph 42% 0 in CLR
14:59 84.9 °F 57.9 °F 29.9 in ESE 8.7 mph 12.7 mph 40% 0 in CLR
15:04 84.7 °F 59.2 °F 29.9 in SE 8.7 mph 19.6 mph 42% 0 in CLR
15:09 84.9 °F 59.4 °F 29.9 in SE 9.2 mph 11.5 mph 42% 0 in CLR
15:14 84.9 °F 60.6 °F 29.9 in SE 9.2 mph 15 mph 44% 0 in CLR
15:19 85.1 °F 60.1 °F 29.9 in ESE 11.2 mph 13.8 mph 43% 0 in CLR
15:24 85.6 °F 59.9 °F 29.9 in ESE 11.2 mph 17.3 mph 42% 0 in CLR
15:29 85.5 °F 59.2 °F 29.9 in SE 9.7 mph 15 mph 41% 0 in CLR
15:34 85.5 °F 59.2 °F 29.9 in ESE 9.7 mph 15 mph 41% 0 in CLR
15:39 85.6 °F 59.2 °F 29.9 in SE 9.7 mph 15.6 mph 41% 0 in CLR
15:44 85.5 °F 59.2 °F 29.9 in ESE 9.7 mph 16.1 mph 41% 0 in CLR
15:49 85.3 °F 58.3 °F 29.9 in ESE 10.7 mph 15 mph 40% 0 in CLR
15:54 85.3 °F 58.8 °F 29.9 in ESE 10.7 mph 15 mph 41% 0 in CLR
15:59 85.3 °F 59.5 °F 29.9 in ESE 11.8 mph 16.1 mph 42% 0 in CLR
16:04 85.5 °F 58.5 °F 29.9 in ESE 11.8 mph 13.8 mph 40% 0 in CLR
16:09 85.8 °F 58.6 °F 29.9 in East 10 mph 20.7 mph 40% 0 in CLR
16:14 86 °F 58.3 °F 29.9 in ENE 10 mph 13.5 mph 39% 0 in CLR
16:19 86.2 °F 56.8 °F 29.9 in ESE 10.7 mph 15 mph 37% 0 in CLR
16:24 86.4 °F 56.3 °F 29.9 in ESE 10.7 mph 20.8 mph 36% 0 in CLR
16:29 86.4 °F 54.7 °F 29.9 in SE 11.4 mph 12.7 mph 34% 0 in CLR
16:34 86.5 °F 54 °F 29.9 in SE 11.4 mph 16.1 mph 33% 0 in CLR
16:39 86.7 °F 53.2 °F 29.9 in East 9.7 mph 10.4 mph 32% 0 in CLR
16:44 87.1 °F 53.6 °F 29.9 in ESE 9.7 mph 18.4 mph 32% 0 in CLR
16:49 86.7 °F 53.2 °F 29.9 in ESE 10.7 mph 18.4 mph 32% 0 in CLR
16:54 86.4 °F 54.7 °F 29.9 in East 10.7 mph 18.4 mph 34% 0 in CLR
16:59 86.2 °F 55.2 °F 29.9 in ESE 11.2 mph 15 mph 35% 0 in CLR
17:04 86.4 °F 54.7 °F 29.9 in ESE 11.2 mph 19.6 mph 34% 0 in CLR
17:09 86.5 °F 55.6 °F 29.9 in East 11.4 mph 13.5 mph 35% 0 in CLR
17:14 86.7 °F 55.8 °F 29.9 in East 11.4 mph 13.8 mph 35% 0 in CLR
17:19 86.5 °F 55.6 °F 29.9 in SE 10.2 mph 20.8 mph 35% 0 in CLR
17:24 86.2 °F 55.2 °F 29.9 in SE 10.2 mph 16.1 mph 35% 0 in CLR
17:29 86.2 °F 54.5 °F 29.9 in ESE 11.2 mph 11.5 mph 34% 0 in CLR
17:34 86.4 °F 55.6 °F 29.9 in SSE 11.2 mph 16.1 mph 35% 0 in CLR
17:39 85.6 °F 54.9 °F 29.9 in SE 11.2 mph 15 mph 35% 0 in CLR
17:44 85.6 °F 54.9 °F 29.9 in SE 11.2 mph 19.6 mph 35% 0 in CLR
17:49 85.8 °F 55 °F 29.9 in ESE 12.3 mph 15 mph 35% 0 in CLR
17:54 85.6 °F 54.9 °F 29.9 in ESE 12.3 mph 12.7 mph 35% 0 in CLR
17:59 86.2 °F 54.5 °F 29.9 in SE 10.7 mph 13.8 mph 34% 0 in CLR
18:04 86.2 °F 52.9 °F 29.9 in SE 10.7 mph 15.6 mph 32% 0 in CLR
18:09 86.2 °F 53.8 °F 29.9 in ESE 9.7 mph 16.1 mph 33% 0 in CLR
18:14 86 °F 54.3 °F 29.9 in ESE 9.7 mph 12.3 mph 34% 0 in CLR
18:19 85.5 °F 55.6 °F 29.9 in ESE 10 mph 16.1 mph 36% 0 in CLR
18:24 85.5 °F 54.7 °F 29.9 in SSE 10 mph 12.7 mph 35% 0 in CLR
18:29 85.5 °F 55.6 °F 29.9 in ESE 8.5 mph 17.3 mph 36% 0 in CLR
18:34 84.9 °F 55.8 °F 29.9 in ESE 8.5 mph 18.1 mph 37% 0 in CLR
18:39 84.9 °F 55.8 °F 29.9 in ESE 11.4 mph 13.8 mph 37% 0 in CLR
18:44 84.9 °F 55.8 °F 29.9 in SE 11.4 mph 13.8 mph 37% 0 in CLR
18:49 84.6 °F 56.1 °F 29.8 in ESE 9.7 mph 18.4 mph 38% 0 in CLR
18:54 84.6 °F 56.1 °F 29.8 in SE 9.7 mph 15 mph 38% 0 in CLR
18:59 84.6 °F 56.1 °F 29.8 in SE 10 mph 13.5 mph 38% 0 in CLR
19:04 84.6 °F 55.4 °F 29.8 in SE 10 mph 11.5 mph 37% 0 in CLR
19:09 84.6 °F 55.4 °F 29.8 in ESE 9.2 mph 17.3 mph 37% 0 in CLR
19:14 84.2 °F 55 °F 29.8 in East 9.2 mph 16.1 mph 37% 0 in CLR
19:19 84.4 °F 54.5 °F 29.8 in SSE 10.2 mph 8.1 mph 36% 0 in CLR
19:24 84.6 °F 54 °F 29.8 in SE 10.2 mph 8.1 mph 35% 0 in CLR
19:29 84.6 °F 53.1 °F 29.8 in ESE 7.4 mph 12.7 mph 34% 0 in CLR
19:34 84.4 °F 52.9 °F 29.8 in ESE 7.4 mph 9.2 mph 34% 0 in CLR
19:39 84.2 °F 52.9 °F 29.8 in ESE 8.1 mph 12.7 mph 34% 0 in CLR
19:44 84.4 °F 52.9 °F 29.8 in SE 8.1 mph 10.4 mph 34% 0 in CLR
19:49 84 °F 52.5 °F 29.8 in ESE 7.6 mph 11.5 mph 34% 0 in CLR
19:54 83.8 °F 54.9 °F 29.8 in ESE 7.6 mph 8.1 mph 37% 0 in CLR
19:59 83.7 °F 56.1 °F 29.8 in NE 6.4 mph 9.7 mph 39% 0 in CLR
20:04 83.3 °F 53.6 °F 29.9 in East 6.4 mph 6.4 mph 36% 0 in CLR
20:09 83.1 °F 52.5 °F 29.9 in East 6.4 mph 11.5 mph 35% 0 in CLR
20:14 82.9 °F 53.2 °F 29.9 in NNE 6.4 mph 15 mph 36% 0 in CLR
20:19 82.4 °F 57 °F 29.9 in NNE 8.7 mph 14 mph 42% 0 in CLR
20:24 81.7 °F 57 °F 29.9 in NE 8.7 mph 14.5 mph 43% 0 in CLR
20:29 81.1 °F 57.7 °F 29.9 in NE 10 mph 13.8 mph 45% 0 in CLR
20:34 80.8 °F 58.1 °F 29.9 in ENE 10 mph 12.7 mph 46% 0 in CLR
20:39 80.2 °F 58.3 °F 29.9 in NE 10.2 mph 16.1 mph 47% 0 in CLR
20:44 79.9 °F 58.5 °F 29.9 in NE 10.2 mph 14.7 mph 48% 0 in CLR
20:49 79.5 °F 59.2 °F 29.9 in ENE 10.7 mph 13.8 mph 50% 0 in CLR
20:54 79.3 °F 59.5 °F 29.9 in NE 10.7 mph 15 mph 51% 0 in CLR
20:59 78.8 °F 59.7 °F 29.9 in NE 9.7 mph 15 mph 52% 0 in CLR
21:04 78.3 °F 60.3 °F 29.9 in NNE 9.7 mph 16.1 mph 54% 0 in CLR
21:09 77.9 °F 60.4 °F 29.9 in NE 10.2 mph 12.3 mph 55% 0 in CLR
21:14 77.4 °F 60.4 °F 29.9 in NE 10.2 mph 15 mph 56% 0 in CLR
21:19 77 °F 60.6 °F 29.9 in East 9.7 mph 11.5 mph 57% 0 in CLR
21:24 76.6 °F 60.3 °F 29.9 in NE 9.7 mph 12.7 mph 57% 0 in CLR
21:29 76.3 °F 61 °F 29.9 in ENE 8.1 mph 8.1 mph 59% 0 in CLR
21:34 76.3 °F 61 °F 29.9 in ESE 8.1 mph 9.2 mph 59% 0 in CLR
21:39 76.3 °F 61.3 °F 29.9 in NNE 5.9 mph 6.9 mph 60% 0 in CLR
21:44 75.9 °F 61.5 °F 29.9 in NE 5.9 mph 9.2 mph 61% 0 in CLR
21:49 75.7 °F 61.9 °F 29.9 in East 5.9 mph 6.9 mph 62% 0 in CLR
21:54 75.6 °F 61.5 °F 29.9 in ENE 5.9 mph 9.2 mph 62% 0 in CLR
21:59 75.4 °F 61.9 °F 29.9 in ESE 5.2 mph 8.5 mph 63% 0 in CLR
22:04 75.4 °F 62.4 °F 29.9 in NNE 5.2 mph 9.2 mph 64% 0 in CLR
22:09 75 °F 62.1 °F 29.9 in NE 5.9 mph 11.5 mph 64% 0 in CLR
22:14 74.8 °F 62.2 °F 29.9 in NE 5.9 mph 8.7 mph 65% 0 in CLR
22:19 74.7 °F 62.1 °F 29.9 in NE 6.2 mph 8.1 mph 65% 0 in CLR
22:24 74.5 °F 61.9 °F 29.9 in NE 6.2 mph 9.2 mph 65% 0 in CLR
22:29 74.3 °F 61.9 °F 29.9 in East 6.4 mph 10.7 mph 65% 0 in CLR
22:34 73.9 °F 62.8 °F 29.9 in NE 6.4 mph 6.2 mph 68% 0 in CLR
22:39 73.6 °F 62.8 °F 29.9 in NNE 5.4 mph 8.1 mph 69% 0 in CLR
22:44 73.2 °F 62.4 °F 29.9 in NE 5.4 mph 6.9 mph 69% 0 in CLR
22:49 72.9 °F 62.4 °F 29.9 in NNE 5.9 mph 9.2 mph 70% 0 in CLR
22:54 72.7 °F 62.2 °F 29.9 in NNE 5.9 mph 9.2 mph 70% 0 in CLR
22:59 72.9 °F 62.4 °F 29.9 in NE 5.4 mph 5.8 mph 70% 0 in CLR
23:04 72.7 °F 62.2 °F 29.9 in ENE 5.4 mph 8.1 mph 70% 0 in CLR
23:09 72.5 °F 62.6 °F 29.9 in ENE 5.9 mph 8.1 mph 71% 0 in CLR
23:14 72.3 °F 62.8 °F 29.9 in NNE 5.9 mph 13.8 mph 72% 0 in CLR
23:19 72 °F 62.4 °F 29.9 in ENE 6.2 mph 8.1 mph 72% 0 in CLR
23:24 71.8 °F 62.8 °F 29.9 in NE 6.2 mph 6.9 mph 73% 0 in CLR
23:29 71.4 °F 62.2 °F 29.9 in NNE 5.4 mph 7.4 mph 73% 0 in CLR
23:34 71.2 °F 62.4 °F 29.9 in NE 5.4 mph 9.2 mph 74% 0 in CLR
23:39 71.1 °F 62.8 °F 29.9 in NNE 6.2 mph 10 mph 75% 0 in CLR
23:44 70.9 °F 63 °F 29.9 in NE 6.2 mph 6.9 mph 76% 0 in CLR
23:49 70.9 °F 63.3 °F 29.9 in NE 5.4 mph 8.1 mph 77% 0 in CLR
23:54 70.7 °F 63.1 °F 29.9 in East 5.4 mph 6.9 mph 77% 0 in CLR
23:59 70.7 °F 63.1 °F 29.9 in NE 5.2 mph 5.8 mph 77% 0 in CLR
Murcia-Puente Tocinos, España
Compliments of Weather Underground - 2.75 mb

La estación de MeteoMurcia.com, publica sus datos en los siguientes proyectos:

Weather Underground PWS IMURCIAP2 Meteoclimatic www.awekas.at

W3Counter
Web Analytics